createdAt,value
2018-05-16T00:00:58.252Z,11.00
2018-05-16T00:03:26.371Z,13.43
2018-05-16T00:05:54.498Z,12.80
2018-05-16T00:08:22.625Z,11.67
2018-05-16T00:10:50.749Z,12.10
2018-05-16T00:13:18.881Z,9.20
2018-05-16T00:15:47.178Z,11.30
2018-05-16T00:18:15.300Z,9.67
2018-05-16T00:20:43.426Z,10.87
2018-05-16T00:23:11.583Z,11.47
2018-05-16T00:25:39.707Z,11.23
2018-05-16T00:28:07.811Z,9.90
2018-05-16T00:30:35.942Z,11.43
2018-05-16T00:33:04.087Z,10.27
2018-05-16T00:35:32.206Z,12.07
2018-05-16T00:38:00.341Z,17.57
2018-05-16T00:40:28.492Z,11.87
2018-05-16T00:42:56.605Z,13.53
2018-05-16T00:45:24.730Z,11.80
2018-05-16T00:47:52.862Z,11.83
2018-05-16T00:50:20.995Z,11.57
2018-05-16T00:52:49.137Z,10.30
2018-05-16T00:55:17.270Z,11.27
2018-05-16T00:57:45.447Z,11.23
2018-05-16T01:00:13.603Z,13.30
2018-05-16T01:02:41.730Z,12.47
2018-05-16T01:05:09.855Z,11.63
2018-05-16T01:07:37.978Z,11.60
2018-05-16T01:10:06.135Z,11.33
2018-05-16T01:12:34.265Z,13.03
2018-05-16T01:15:02.541Z,11.03
2018-05-16T01:17:30.654Z,10.60
2018-05-16T01:19:58.772Z,10.70
2018-05-16T01:22:26.898Z,10.60
2018-05-16T01:24:55.013Z,12.17
2018-05-16T01:27:23.134Z,11.03
2018-05-16T01:29:51.291Z,12.03
2018-05-16T01:32:19.410Z,11.00
2018-05-16T01:34:47.534Z,9.33
2018-05-16T01:37:15.661Z,10.90
2018-05-16T01:39:43.790Z,11.73
2018-05-16T01:42:11.909Z,7.83
2018-05-16T01:44:40.211Z,9.77
2018-05-16T01:47:10.066Z,9.00
2018-05-16T01:49:38.178Z,6.63
2018-05-16T01:52:06.500Z,8.70
2018-05-16T01:54:34.632Z,9.47
2018-05-16T01:57:02.741Z,7.47
2018-05-16T01:59:30.886Z,9.37
2018-05-16T02:01:58.996Z,9.40
2018-05-16T02:04:27.603Z,9.20
2018-05-16T02:06:55.730Z,11.47
2018-05-16T02:09:23.845Z,8.23
2018-05-16T02:11:51.962Z,9.30
2018-05-16T02:14:20.087Z,10.80
2018-05-16T02:16:48.225Z,10.30
2018-05-16T02:19:16.346Z,8.67
2018-05-16T02:21:44.489Z,10.73
2018-05-16T02:24:12.594Z,8.60
2018-05-16T02:26:40.724Z,6.47
2018-05-16T02:29:09.062Z,8.37
2018-05-16T02:31:37.194Z,8.43
2018-05-16T02:34:05.318Z,6.57
2018-05-16T02:36:33.743Z,9.17
2018-05-16T02:39:01.848Z,8.03
2018-05-16T02:41:29.992Z,8.90
2018-05-16T02:43:58.139Z,7.20
2018-05-16T02:46:26.261Z,9.47
2018-05-16T02:48:54.372Z,7.83
2018-05-16T02:51:22.523Z,8.07
2018-05-16T02:53:50.652Z,7.87
2018-05-16T02:56:20.916Z,7.03
2018-05-16T02:58:49.045Z,8.47
2018-05-16T03:01:17.167Z,7.17
2018-05-16T03:03:45.299Z,6.63
2018-05-16T03:06:13.432Z,9.17
2018-05-16T03:08:41.553Z,8.03
2018-05-16T03:11:09.679Z,8.60
2018-05-16T03:13:37.829Z,7.80
2018-05-16T03:16:05.963Z,9.87
2018-05-16T03:18:34.089Z,7.07
2018-05-16T03:21:02.225Z,9.13
2018-05-16T03:23:30.322Z,7.10
2018-05-16T03:25:58.449Z,9.73
2018-05-16T03:28:26.573Z,8.87
2018-05-16T03:30:54.689Z,9.03
2018-05-16T03:33:22.791Z,7.07
2018-05-16T03:35:51.124Z,8.00
2018-05-16T03:38:19.219Z,9.40
2018-05-16T03:40:47.326Z,7.97
2018-05-16T03:43:15.477Z,7.90
2018-05-16T03:45:43.589Z,8.27
2018-05-16T03:48:11.704Z,8.60
2018-05-16T03:50:39.864Z,8.70
2018-05-16T03:53:07.999Z,10.03
2018-05-16T03:55:36.105Z,10.30
2018-05-16T03:58:24.902Z,7.77
2018-05-16T04:01:04.768Z,8.33
2018-05-16T04:03:44.585Z,10.57
2018-05-16T04:06:12.714Z,11.73
2018-05-16T04:08:40.847Z,10.27
2018-05-16T04:11:08.962Z,9.57
2018-05-16T04:13:37.127Z,11.73
2018-05-16T04:16:05.191Z,9.53
2018-05-16T04:18:33.333Z,8.60
2018-05-16T04:21:01.446Z,11.87
2018-05-16T04:23:29.588Z,9.87
2018-05-16T04:25:57.729Z,10.17
2018-05-16T04:28:25.828Z,13.73
2018-05-16T04:30:53.931Z,9.77
2018-05-16T04:33:22.225Z,10.43
2018-05-16T04:35:50.361Z,10.37
2018-05-16T04:38:18.488Z,9.20
2018-05-16T04:40:46.626Z,11.20
2018-05-16T04:43:14.741Z,8.97
2018-05-16T04:45:42.859Z,9.27
2018-05-16T04:48:10.971Z,8.40
2018-05-16T04:50:40.021Z,10.07
2018-05-16T04:53:08.129Z,9.23
2018-05-16T04:55:36.513Z,13.40
2018-05-16T04:58:04.629Z,8.63
2018-05-16T05:00:32.744Z,9.70
2018-05-16T05:03:00.908Z,10.73
2018-05-16T05:05:29.023Z,11.50
2018-05-16T05:07:57.146Z,10.13
2018-05-16T05:10:25.288Z,9.50
2018-05-16T05:12:53.406Z,10.07
2018-05-16T05:15:21.525Z,12.77
2018-05-16T05:17:49.664Z,9.57
2018-05-16T05:20:17.788Z,11.33
2018-05-16T05:22:45.935Z,14.03
2018-05-16T05:25:14.134Z,13.33
2018-05-16T05:27:42.279Z,11.57
2018-05-16T05:30:10.436Z,10.47
2018-05-16T05:32:38.558Z,11.10
2018-05-16T05:35:06.685Z,14.13
2018-05-16T05:37:34.819Z,10.37
2018-05-16T05:40:02.967Z,10.30
2018-05-16T05:42:31.085Z,11.70
2018-05-16T05:44:59.188Z,12.57
2018-05-16T05:47:27.321Z,10.10
2018-05-16T05:49:55.476Z,14.47
2018-05-16T05:52:23.593Z,12.00
2018-05-16T05:54:51.983Z,10.33
2018-05-16T05:57:20.112Z,10.67
2018-05-16T05:59:48.215Z,15.27
2018-05-16T06:02:16.361Z,13.13
2018-05-16T06:04:44.499Z,11.70
2018-05-16T06:07:12.620Z,10.07
2018-05-16T06:09:40.743Z,12.70
2018-05-16T06:12:08.851Z,12.67
2018-05-16T06:14:36.970Z,13.13
2018-05-16T06:17:05.129Z,14.60
2018-05-16T06:19:33.317Z,11.07
2018-05-16T06:22:01.360Z,13.00
2018-05-16T06:24:29.503Z,12.30
2018-05-16T06:27:00.774Z,10.53
2018-05-16T06:29:28.890Z,15.07
2018-05-16T06:31:57.242Z,14.00
2018-05-16T06:34:25.391Z,15.53
2018-05-16T06:36:54.124Z,10.43
2018-05-16T06:39:22.268Z,12.83
2018-05-16T06:41:50.386Z,13.80
2018-05-16T06:44:18.515Z,13.60
2018-05-16T06:46:46.649Z,13.53
2018-05-16T06:49:14.792Z,13.90
2018-05-16T06:51:44.809Z,13.37
2018-05-16T06:54:12.967Z,13.03
2018-05-16T06:56:41.091Z,12.10
2018-05-16T06:59:09.229Z,18.27
2018-05-16T07:01:37.374Z,14.17
2018-05-16T07:04:05.617Z,14.60
2018-05-16T07:06:33.793Z,10.30
2018-05-16T07:09:01.940Z,13.83
2018-05-16T07:11:30.046Z,12.63
2018-05-16T07:13:58.167Z,12.00
2018-05-16T07:16:26.317Z,12.23
2018-05-16T07:18:54.411Z,12.03
2018-05-16T07:21:22.549Z,13.03
2018-05-16T07:23:50.722Z,14.27
2018-05-16T07:26:18.859Z,12.87
2018-05-16T07:28:46.971Z,14.07
2018-05-16T07:31:15.110Z,19.47
2018-05-16T07:33:43.241Z,19.67
2018-05-16T07:36:11.367Z,17.63
2018-05-16T07:38:39.532Z,14.20
2018-05-16T07:41:07.682Z,15.80
2018-05-16T07:43:35.809Z,16.77
2018-05-16T07:46:03.949Z,17.77
2018-05-16T07:48:32.096Z,14.37
2018-05-16T07:51:00.229Z,13.90
2018-05-16T07:53:28.360Z,16.73
2018-05-16T07:55:56.629Z,15.20
2018-05-16T07:58:24.683Z,11.90
2018-05-16T08:00:56.298Z,15.70
2018-05-16T08:03:24.604Z,11.97
2018-05-16T08:05:53.277Z,12.57
2018-05-16T08:08:21.410Z,15.17
2018-05-16T08:10:49.550Z,12.27
2018-05-16T08:13:17.672Z,12.40
2018-05-16T08:15:45.817Z,14.30
2018-05-16T08:18:13.979Z,14.33
2018-05-16T08:20:42.114Z,15.70
2018-05-16T08:23:10.256Z,13.30
2018-05-16T08:25:38.408Z,15.33
2018-05-16T08:28:06.569Z,15.53
2018-05-16T08:30:34.736Z,17.43
2018-05-16T08:33:02.881Z,12.63
2018-05-16T08:35:31.006Z,10.33
2018-05-16T08:37:59.173Z,12.10
2018-05-16T08:40:27.292Z,13.40
2018-05-16T08:42:55.463Z,15.00
2018-05-16T08:45:23.554Z,14.37
2018-05-16T08:47:51.681Z,13.70
2018-05-16T08:50:19.939Z,12.97
2018-05-16T08:52:48.377Z,13.27
2018-05-16T08:55:16.513Z,16.87
2018-05-16T08:57:44.641Z,11.07
2018-05-16T09:00:12.765Z,12.77
2018-05-16T09:02:40.889Z,13.30
2018-05-16T09:05:09.009Z,13.43
2018-05-16T09:07:37.145Z,14.60
2018-05-16T09:10:05.258Z,9.80
2018-05-16T09:12:33.362Z,12.97
2018-05-16T09:15:01.497Z,12.40
2018-05-16T09:17:29.647Z,11.33
2018-05-16T09:19:57.773Z,14.23
2018-05-16T09:22:25.928Z,11.53
2018-05-16T09:24:54.034Z,12.17
2018-05-16T09:27:22.241Z,12.57
2018-05-16T09:29:50.456Z,12.83
2018-05-16T09:32:18.634Z,15.40
2018-05-16T09:34:46.762Z,9.43
2018-05-16T09:37:14.892Z,10.17
2018-05-16T09:39:43.009Z,10.83
2018-05-16T09:42:11.129Z,11.00
2018-05-16T09:44:39.262Z,9.03
2018-05-16T09:47:07.391Z,9.77
2018-05-16T09:49:35.530Z,11.23
2018-05-16T09:52:03.672Z,9.63
2018-05-16T09:54:31.875Z,13.07
2018-05-16T09:57:00.045Z,14.77
2018-05-16T09:59:28.185Z,11.53
2018-05-16T10:01:56.299Z,11.57
2018-05-16T10:04:24.407Z,10.13
2018-05-16T10:06:52.568Z,15.60
2018-05-16T10:09:20.996Z,11.73
2018-05-16T10:11:49.154Z,11.87
2018-05-16T10:14:17.348Z,11.10
2018-05-16T10:16:45.455Z,10.90
2018-05-16T10:19:13.823Z,12.03
2018-05-16T10:21:42.005Z,13.90
2018-05-16T10:24:10.133Z,9.73
2018-05-16T10:26:38.273Z,13.17
2018-05-16T10:29:06.577Z,11.17
2018-05-16T10:31:34.717Z,10.83
2018-05-16T10:34:02.810Z,13.67
2018-05-16T10:36:30.976Z,11.47
2018-05-16T10:38:59.139Z,8.60
2018-05-16T10:41:27.245Z,9.37
2018-05-16T10:43:55.365Z,11.87
2018-05-16T10:46:23.480Z,9.53
2018-05-16T10:48:51.601Z,12.27
2018-05-16T10:51:19.737Z,9.73
2018-05-16T10:53:48.150Z,10.13
2018-05-16T10:56:15.973Z,11.80
2018-05-16T10:58:44.127Z,10.07
2018-05-16T11:01:12.245Z,10.83
2018-05-16T11:03:40.377Z,12.70
2018-05-16T11:06:08.521Z,8.37
2018-05-16T11:08:36.655Z,11.97
2018-05-16T11:11:04.800Z,10.03
2018-05-16T11:13:32.935Z,9.97
2018-05-16T11:16:01.053Z,10.53
2018-05-16T11:18:29.177Z,11.57
2018-05-16T11:20:57.313Z,12.00
2018-05-16T11:23:25.461Z,10.93
2018-05-16T11:25:53.612Z,13.07
2018-05-16T11:28:21.789Z,12.50
2018-05-16T11:30:49.959Z,8.47
2018-05-16T11:33:18.097Z,9.53
2018-05-16T11:35:46.213Z,10.57
2018-05-16T11:38:14.341Z,10.00
2018-05-16T11:40:42.483Z,12.03
2018-05-16T11:43:10.601Z,9.47
2018-05-16T11:45:38.730Z,13.23
2018-05-16T11:48:06.864Z,13.60
2018-05-16T11:50:35.015Z,9.77
2018-05-16T11:53:03.137Z,10.57
2018-05-16T11:55:31.266Z,10.17
2018-05-16T11:57:59.379Z,8.00
2018-05-16T12:00:27.505Z,10.00
2018-05-16T12:02:55.693Z,13.30
2018-05-16T12:05:23.751Z,11.50
2018-05-16T12:07:51.876Z,7.77
2018-05-16T12:10:19.979Z,9.17
2018-05-16T12:12:48.116Z,7.17
2018-05-16T12:15:16.232Z,8.10
2018-05-16T12:17:44.354Z,10.67
2018-05-16T12:20:12.505Z,9.83
2018-05-16T12:22:40.611Z,11.63
2018-05-16T12:25:08.715Z,8.10
2018-05-16T12:27:36.894Z,12.23
2018-05-16T12:30:05.000Z,8.63
2018-05-16T12:32:33.128Z,9.27
2018-05-16T12:35:01.240Z,11.10
2018-05-16T12:37:29.373Z,11.17
2018-05-16T12:39:57.476Z,12.40
2018-05-16T12:42:25.598Z,7.97
2018-05-16T12:44:53.704Z,9.47
2018-05-16T12:47:21.861Z,12.57
2018-05-16T12:49:49.967Z,9.10
2018-05-16T12:52:18.075Z,9.60
2018-05-16T12:54:46.224Z,12.10
2018-05-16T12:57:14.389Z,9.30
2018-05-16T12:59:42.509Z,7.80
2018-05-16T13:02:10.626Z,9.20
2018-05-16T13:04:38.758Z,12.73
2018-05-16T13:07:06.958Z,7.30
2018-05-16T13:09:34.980Z,12.80
2018-05-16T13:12:03.121Z,7.90
2018-05-16T13:14:31.219Z,8.10
2018-05-16T13:16:59.341Z,10.07
2018-05-16T13:19:27.496Z,10.13
2018-05-16T13:21:55.628Z,9.27
2018-05-16T13:24:23.756Z,9.90
2018-05-16T13:26:51.979Z,10.40
2018-05-16T13:29:20.313Z,7.63
2018-05-16T13:31:48.425Z,8.27
2018-05-16T13:34:16.561Z,9.60
2018-05-16T13:36:44.767Z,9.53
2018-05-16T13:39:12.937Z,9.27
2018-05-16T13:41:41.069Z,11.57
2018-05-16T13:44:09.215Z,10.90
2018-05-16T13:46:37.328Z,11.20
2018-05-16T13:49:05.450Z,9.93
2018-05-16T13:51:33.581Z,10.57
2018-05-16T13:54:01.683Z,10.90
2018-05-16T13:56:29.821Z,9.73
2018-05-16T13:58:58.556Z,8.70
2018-05-16T14:01:26.669Z,9.80
2018-05-16T14:03:54.856Z,10.23
2018-05-16T14:06:22.995Z,11.27
2018-05-16T14:08:51.119Z,9.70
2018-05-16T14:11:19.317Z,8.93
2018-05-16T14:13:47.459Z,12.37
2018-05-16T14:16:15.578Z,8.00
2018-05-16T14:18:43.685Z,8.40
2018-05-16T14:21:11.817Z,8.27
2018-05-16T14:23:39.937Z,10.23
2018-05-16T14:26:08.078Z,13.93
2018-05-16T14:28:36.212Z,11.13
2018-05-16T14:31:04.329Z,8.70
2018-05-16T14:33:32.549Z,10.67
2018-05-16T14:36:00.648Z,9.23
2018-05-16T14:38:28.814Z,13.83
2018-05-16T14:40:57.026Z,23.47
2018-05-16T14:43:25.213Z,23.10
2018-05-16T14:45:53.327Z,14.97
2018-05-16T14:48:21.492Z,18.90
2018-05-16T14:50:49.733Z,26.97
2018-05-16T14:53:17.868Z,23.93
2018-05-16T14:55:46.195Z,29.20
2018-05-16T14:58:14.317Z,26.57
2018-05-16T15:00:42.429Z,26.00
2018-05-16T15:03:10.713Z,27.53
2018-05-16T15:05:38.839Z,32.57
2018-05-16T15:08:07.577Z,26.60
2018-05-16T15:10:35.924Z,31.37
2018-05-16T15:13:04.096Z,29.33
2018-05-16T15:15:32.227Z,35.67
2018-05-16T15:18:00.376Z,29.13
2018-05-16T15:20:28.521Z,32.93
2018-05-16T15:22:56.659Z,33.47
2018-05-16T15:25:24.786Z,32.03
2018-05-16T15:27:56.648Z,33.80
2018-05-16T15:30:24.791Z,34.60
2018-05-16T15:32:52.940Z,34.80
2018-05-16T15:35:21.083Z,38.70
2018-05-16T15:37:49.303Z,33.10
2018-05-16T15:40:17.458Z,36.13
2018-05-16T15:42:45.589Z,34.87
2018-05-16T15:45:13.725Z,33.50
2018-05-16T15:47:41.900Z,32.20
2018-05-16T15:50:10.042Z,35.23
2018-05-16T15:52:38.200Z,33.47
2018-05-16T15:55:06.416Z,30.90
2018-05-16T15:57:34.545Z,31.40
2018-05-16T16:00:02.860Z,33.40
2018-05-16T16:02:31.000Z,30.87
2018-05-16T16:05:02.258Z,31.13
2018-05-16T16:07:30.372Z,35.87
2018-05-16T16:09:58.526Z,32.50
2018-05-16T16:12:26.661Z,37.40
2018-05-16T16:14:54.850Z,34.03
2018-05-16T16:17:22.991Z,30.30
2018-05-16T16:19:51.124Z,36.63
2018-05-16T16:22:19.249Z,37.20
2018-05-16T16:24:47.375Z,39.83
2018-05-16T16:27:15.496Z,35.57
2018-05-16T16:29:43.621Z,39.30
2018-05-16T16:32:11.765Z,39.53
2018-05-16T16:34:39.900Z,40.30
2018-05-16T16:37:08.044Z,35.83
2018-05-16T16:39:36.204Z,37.03
2018-05-16T16:42:04.350Z,37.30
2018-05-16T16:44:32.472Z,42.37
2018-05-16T16:47:00.772Z,40.27
2018-05-16T16:49:31.828Z,30.87
2018-05-16T16:51:59.966Z,33.10
2018-05-16T16:54:28.152Z,28.80
2018-05-16T16:56:56.352Z,26.50
2018-05-16T16:59:24.509Z,26.43
2018-05-16T17:01:52.666Z,26.57
2018-05-16T17:04:20.810Z,25.40
2018-05-16T17:06:48.957Z,22.77
2018-05-16T17:09:17.150Z,30.20
2018-05-16T17:11:45.267Z,26.10
2018-05-16T17:14:13.406Z,28.80
2018-05-16T17:16:41.568Z,32.67
2018-05-16T17:19:09.784Z,24.20
2018-05-16T17:21:37.935Z,28.13
2018-05-16T17:24:06.089Z,31.43
2018-05-16T17:26:34.206Z,26.10
2018-05-16T17:29:02.322Z,29.17
2018-05-16T17:31:30.456Z,25.20
2018-05-16T17:33:58.590Z,30.70
2018-05-16T17:36:26.703Z,28.37
2018-05-16T17:38:54.858Z,23.00
2018-05-16T17:41:22.967Z,27.73
2018-05-16T17:43:51.111Z,23.40
2018-05-16T17:46:19.267Z,22.60
2018-05-16T17:48:47.380Z,24.83
2018-05-16T17:51:19.272Z,25.37
2018-05-16T17:53:47.467Z,21.53
2018-05-16T17:56:15.548Z,23.20
2018-05-16T17:58:43.664Z,25.17
2018-05-16T18:01:11.842Z,22.33
2018-05-16T18:03:39.982Z,21.43
2018-05-16T18:06:08.122Z,23.27
2018-05-16T18:08:36.256Z,23.03
2018-05-16T18:11:07.916Z,21.07
2018-05-16T18:16:49.494Z,15.87
2018-05-16T18:19:18.197Z,21.63
2018-05-16T18:21:46.327Z,22.10
2018-05-16T18:24:14.448Z,18.77
2018-05-16T18:26:42.602Z,15.80
2018-05-16T18:29:10.725Z,18.53
2018-05-16T18:31:38.848Z,17.60
2018-05-16T18:34:07.002Z,16.23
2018-05-16T18:36:35.129Z,13.93
2018-05-16T18:39:03.235Z,20.83
2018-05-16T18:41:31.385Z,22.47
2018-05-16T18:43:59.528Z,12.43
2018-05-16T18:46:27.742Z,19.70
2018-05-16T18:48:55.921Z,14.00
2018-05-16T18:51:24.142Z,17.33
2018-05-16T18:53:52.258Z,19.40
2018-05-16T18:56:20.401Z,17.27
2018-05-16T18:58:48.525Z,17.90
2018-05-16T19:01:16.644Z,16.07
2018-05-16T19:03:44.913Z,17.43
2018-05-16T19:06:13.019Z,17.33
2018-05-16T19:08:41.217Z,19.97
2018-05-16T19:11:09.297Z,20.10
2018-05-16T19:13:37.449Z,14.03
2018-05-16T19:16:05.601Z,15.60
2018-05-16T19:18:33.730Z,19.03
2018-05-16T19:21:01.966Z,15.63
2018-05-16T19:23:30.142Z,17.77
2018-05-16T19:25:58.301Z,16.10
2018-05-16T19:28:26.435Z,16.83
2018-05-16T19:30:54.714Z,14.83
2018-05-16T19:33:22.866Z,17.30
2018-05-16T19:35:51.007Z,17.53
2018-05-16T19:38:19.151Z,15.40
2018-05-16T19:40:47.522Z,18.40
2018-05-16T19:43:15.681Z,14.47
2018-05-16T19:45:43.865Z,18.07
2018-05-16T19:48:11.996Z,15.10
2018-05-16T19:50:40.117Z,15.90
2018-05-16T19:53:08.314Z,21.67
2018-05-16T19:55:36.443Z,19.57
2018-05-16T19:58:04.561Z,20.20
2018-05-16T20:00:32.670Z,21.37
2018-05-16T20:03:00.794Z,16.03
2018-05-16T20:05:28.940Z,15.87
2018-05-16T20:07:57.043Z,16.43
2018-05-16T20:10:28.380Z,17.27
2018-05-16T20:12:56.709Z,15.93
2018-05-16T20:15:24.853Z,17.73
2018-05-16T20:17:52.993Z,21.53
2018-05-16T20:20:21.200Z,18.07
2018-05-16T20:22:49.333Z,18.27
2018-05-16T20:25:17.460Z,19.00
2018-05-16T20:27:45.585Z,20.23
2018-05-16T20:30:13.727Z,16.10
2018-05-16T20:32:41.866Z,18.27
2018-05-16T20:35:10.105Z,14.73
2018-05-16T20:37:38.137Z,18.33
2018-05-16T20:40:06.277Z,16.23
2018-05-16T20:42:34.452Z,17.17
2018-05-16T20:45:02.600Z,22.67
2018-05-16T20:47:30.828Z,19.63
2018-05-16T20:49:58.937Z,19.83
2018-05-16T20:52:27.076Z,15.27
2018-05-16T20:54:55.217Z,23.90
2018-05-16T20:57:23.462Z,14.93
2018-05-16T20:59:51.585Z,24.60
2018-05-16T21:02:19.866Z,18.77
2018-05-16T21:04:48.087Z,18.00
2018-05-16T21:07:16.201Z,16.67
2018-05-16T21:09:44.324Z,17.53
2018-05-16T21:12:12.449Z,15.67
2018-05-16T21:14:40.596Z,16.33
2018-05-16T21:17:08.995Z,21.10
2018-05-16T21:19:37.132Z,17.07
2018-05-16T21:22:05.236Z,15.03
2018-05-16T21:24:33.373Z,18.83
2018-05-16T21:27:01.503Z,17.97
2018-05-16T21:29:29.668Z,18.53
2018-05-16T21:31:57.790Z,16.63
2018-05-16T21:34:25.942Z,17.50
2018-05-16T21:36:54.061Z,20.87
2018-05-16T21:39:22.179Z,16.13
2018-05-16T21:41:50.290Z,23.47
2018-05-16T21:44:18.390Z,18.83
2018-05-16T21:46:46.752Z,21.53
2018-05-16T21:49:14.882Z,17.60
2018-05-16T21:51:43.075Z,17.83
2018-05-16T21:54:11.196Z,19.67
2018-05-16T21:56:39.362Z,15.87
2018-05-16T21:59:07.423Z,18.50
2018-05-16T22:01:35.586Z,19.23
2018-05-16T22:04:03.690Z,22.67
2018-05-16T22:06:31.807Z,20.73
2018-05-16T22:08:59.931Z,17.40
2018-05-16T22:11:28.075Z,17.10
2018-05-16T22:13:56.195Z,22.33
2018-05-16T22:16:24.337Z,18.73
2018-05-16T22:18:52.443Z,16.67
2018-05-16T22:21:20.587Z,21.23
2018-05-16T22:23:48.736Z,22.73
2018-05-16T22:26:16.858Z,19.17
2018-05-16T22:28:44.967Z,21.50
2018-05-16T22:31:18.696Z,25.13
2018-05-16T22:33:52.488Z,22.63
2018-05-16T22:36:26.218Z,18.67
2018-05-16T22:38:59.895Z,21.47
2018-05-16T22:41:33.629Z,19.53
2018-05-16T22:44:03.537Z,17.37
2018-05-16T22:46:31.651Z,20.53
2018-05-16T22:48:59.793Z,17.37
2018-05-16T22:51:27.917Z,20.97
2018-05-16T22:53:56.060Z,27.17
2018-05-16T22:56:24.341Z,17.13
2018-05-16T22:58:52.468Z,17.00
2018-05-16T23:01:20.580Z,20.30
2018-05-16T23:03:48.721Z,21.73
2018-05-16T23:06:16.863Z,15.67
2018-05-16T23:08:44.986Z,19.93
2018-05-16T23:11:13.297Z,23.60
2018-05-16T23:13:41.439Z,25.17
2018-05-16T23:16:09.655Z,15.37
2018-05-16T23:18:37.702Z,17.43
2018-05-16T23:21:05.837Z,24.13
2018-05-16T23:23:33.966Z,19.87
2018-05-16T23:26:02.105Z,15.87
2018-05-16T23:28:30.226Z,18.97
2018-05-16T23:30:58.356Z,27.47
2018-05-16T23:33:26.488Z,15.17
2018-05-16T23:35:54.613Z,17.20
2018-05-16T23:38:22.720Z,24.10
2018-05-16T23:40:50.861Z,23.90
2018-05-16T23:43:18.981Z,20.63
2018-05-16T23:45:47.090Z,26.20
2018-05-16T23:48:15.430Z,20.57
2018-05-16T23:50:43.620Z,27.37
2018-05-16T23:53:11.792Z,22.60
2018-05-16T23:55:39.914Z,18.60
2018-05-16T23:58:08.028Z,21.83
